sensor_id;sensor_type;location;lat;lon;timestamp;pressure;altitude;pressure_sealevel;temperature;humidity
62418;BME280;48456;54.242;10.280;2023-01-27T00:06:42;102421.84;;;2.14;100.00
62418;BME280;48456;54.242;10.280;2023-01-27T00:09:08;102409.31;;;2.08;100.00
62418;BME280;48456;54.242;10.280;2023-01-27T00:11:34;102423.09;;;2.05;100.00
62418;BME280;48456;54.242;10.280;2023-01-27T00:14:19;102432.66;;;2.05;100.00
62418;BME280;48456;54.242;10.280;2023-01-27T00:16:45;102422.91;;;2.02;100.00
62418;BME280;48456;54.242;10.280;2023-01-27T00:19:12;102422.91;;;2.02;100.00
62418;BME280;48456;54.242;10.280;2023-01-27T00:21:38;102418.53;;;2.01;100.00
62418;BME280;48456;54.242;10.280;2023-01-27T00:24:23;102427.06;;;1.99;100.00
62418;BME280;48456;54.242;10.280;2023-01-27T00:27:02;102429.59;;;1.97;100.00
62418;BME280;48456;54.242;10.280;2023-01-27T00:29:28;102429.59;;;1.97;100.00
62418;BME280;48456;54.242;10.280;2023-01-27T00:31:55;102433.84;;;1.95;100.00
62418;BME280;48456;54.242;10.280;2023-01-27T00:34:40;102428.63;;;1.95;100.00
62418;BME280;48456;54.242;10.280;2023-01-27T00:37:06;102434.38;;;1.89;100.00
62418;BME280;48456;54.242;10.280;2023-01-27T00:39:33;102439.50;;;1.88;100.00
62418;BME280;48456;54.242;10.280;2023-01-27T00:45:21;102443.91;;;1.89;100.00
62418;BME280;48456;54.242;10.280;2023-01-27T00:48:25;102443.91;;;1.89;100.00
62418;BME280;48456;54.242;10.280;2023-01-27T00:50:54;102450.69;;;1.85;100.00
62418;BME280;48456;54.242;10.280;2023-01-27T01:33:49;102474.16;;;1.85;100.00
62418;BME280;48456;54.242;10.280;2023-01-27T01:36:16;102479.19;;;1.82;100.00
62418;BME280;48456;54.242;10.280;2023-01-27T01:39:01;102480.19;;;1.84;100.00
62418;BME280;48456;54.242;10.280;2023-01-27T01:41:40;102480.00;;;1.81;100.00
62418;BME280;48456;54.242;10.280;2023-01-27T01:44:22;102487.94;;;1.83;100.00
62418;BME280;48456;54.242;10.280;2023-01-27T02:03:37;102506.41;;;1.86;100.00
62418;BME280;48456;54.242;10.280;2023-01-27T02:22:17;102499.25;;;1.83;100.00
62418;BME280;48456;54.242;10.280;2023-01-27T02:24:46;102501.88;;;1.83;100.00
62418;BME280;48456;54.242;10.280;2023-01-27T02:27:15;102499.09;;;1.80;100.00
62418;BME280;48456;54.242;10.280;2023-01-27T02:29:41;102507.72;;;1.79;100.00
62418;BME280;48456;54.242;10.280;2023-01-27T02:32:07;102505.91;;;1.78;100.00
62418;BME280;48456;54.242;10.280;2023-01-27T02:34:34;102511.13;;;1.78;100.00
62418;BME280;48456;54.242;10.280;2023-01-27T02:37:03;102510.41;;;1.80;100.00
62418;BME280;48456;54.242;10.280;2023-01-27T02:39:32;102511.22;;;1.79;100.00
62418;BME280;48456;54.242;10.280;2023-01-27T02:41:59;102513.03;;;1.80;100.00
62418;BME280;48456;54.242;10.280;2023-01-27T02:44:26;102513.94;;;1.81;100.00
62418;BME280;48456;54.242;10.280;2023-01-27T02:46:52;102516.44;;;1.79;100.00
62418;BME280;48456;54.242;10.280;2023-01-27T02:49:18;102517.16;;;1.77;100.00
62418;BME280;48456;54.242;10.280;2023-01-27T02:51:45;102518.16;;;1.79;100.00
62418;BME280;48456;54.242;10.280;2023-01-27T02:54:11;102527.59;;;1.77;100.00
62418;BME280;48456;54.242;10.280;2023-01-27T02:56:37;102522.28;;;1.75;100.00
62418;BME280;48456;54.242;10.280;2023-01-27T02:59:04;102536.25;;;1.76;100.00
62418;BME280;48456;54.242;10.280;2023-01-27T03:01:30;102531.84;;;1.75;100.00
62418;BME280;48456;54.242;10.280;2023-01-27T03:03:58;102545.78;;;1.75;100.00
62418;BME280;48456;54.242;10.280;2023-01-27T03:06:24;102545.69;;;1.74;100.00
62418;BME280;48456;54.242;10.280;2023-01-27T03:08:50;102536.16;;;1.74;100.00
62418;BME280;48456;54.242;10.280;2023-01-27T03:11:17;102547.41;;;1.73;100.00
62418;BME280;48456;54.242;10.280;2023-01-27T03:14:03;102549.28;;;1.76;100.00
62418;BME280;48456;54.242;10.280;2023-01-27T03:16:29;102551.00;;;1.75;100.00
62418;BME280;48456;54.242;10.280;2023-01-27T03:19:14;102540.66;;;1.77;100.00
62418;BME280;48456;54.242;10.280;2023-01-27T03:21:40;102554.53;;;1.76;100.00
62418;BME280;48456;54.242;10.280;2023-01-27T03:24:07;102558.09;;;1.78;100.00
62418;BME280;48456;54.242;10.280;2023-01-27T03:26:33;102555.59;;;1.79;100.00
62418;BME280;48456;54.242;10.280;2023-01-27T03:28:59;102561.81;;;1.81;100.00
62418;BME280;48456;54.242;10.280;2023-01-27T03:31:44;102572.41;;;1.85;100.00
62418;BME280;48456;54.242;10.280;2023-01-27T03:34:11;102557.78;;;1.87;100.00
62418;BME280;48456;54.242;10.280;2023-01-27T03:36:37;102570.81;;;1.87;100.00
62418;BME280;48456;54.242;10.280;2023-01-27T03:39:22;102563.09;;;1.88;100.00
62418;BME280;48456;54.242;10.280;2023-01-27T03:42:07;102557.78;;;1.87;100.00
62418;BME280;48456;54.242;10.280;2023-01-27T03:44:52;102565.69;;;1.88;100.00
62418;BME280;48456;54.242;10.280;2023-01-27T03:47:37;102564.78;;;1.88;100.00
62418;BME280;48456;54.242;10.280;2023-01-27T03:50:03;102556.84;;;1.86;100.00
62418;BME280;48456;54.242;10.280;2023-01-27T03:52:36;102560.09;;;1.82;100.00
62418;BME280;48456;54.242;10.280;2023-01-27T03:55:02;102559.22;;;1.81;100.00
62418;BME280;48456;54.242;10.280;2023-01-27T03:57:29;102566.03;;;1.79;100.00
62418;BME280;48456;54.242;10.280;2023-01-27T03:59:55;102568.53;;;1.78;100.00
62418;BME280;48456;54.242;10.280;2023-01-27T04:02:22;102564.22;;;1.78;100.00
62418;BME280;48456;54.242;10.280;2023-01-27T04:05:07;102565.94;;;1.78;100.00
62418;BME280;48456;54.242;10.280;2023-01-27T04:07:53;102561.63;;;1.78;100.00
62418;BME280;48456;54.242;10.280;2023-01-27T04:10:19;102567.66;;;1.77;100.00
62418;BME280;48456;54.242;10.280;2023-01-27T04:12:46;102575.41;;;1.76;100.00
62418;BME280;48456;54.242;10.280;2023-01-27T04:15:13;102567.56;;;1.76;100.00
62418;BME280;48456;54.242;10.280;2023-01-27T04:17:40;102572.78;;;1.76;100.00
62418;BME280;48456;54.242;10.280;2023-01-27T04:20:07;102578.88;;;1.76;100.00
62418;BME280;48456;54.242;10.280;2023-01-27T04:22:34;102573.66;;;1.76;100.00
62418;BME280;48456;54.242;10.280;2023-01-27T04:25:00;102569.25;;;1.75;100.00
62418;BME280;48456;54.242;10.280;2023-01-27T04:27:27;102585.72;;;1.74;100.00
62418;BME280;48456;54.242;10.280;2023-01-27T04:29:53;102581.31;;;1.73;100.00
62418;BME280;48456;54.242;10.280;2023-01-27T04:32:19;102588.88;;;1.68;100.00
62418;BME280;48456;54.242;10.280;2023-01-27T04:34:45;102589.19;;;1.60;100.00
62418;BME280;48456;54.242;10.280;2023-01-27T04:37:12;102579.00;;;1.49;100.00
62418;BME280;48456;54.242;10.280;2023-01-27T04:39:38;102590.56;;;1.39;100.00
62418;BME280;48456;54.242;10.280;2023-01-27T04:42:06;102589.28;;;1.33;100.00
62418;BME280;48456;54.242;10.280;2023-01-27T04:44:33;102582.69;;;1.24;100.00
62418;BME280;48456;54.242;10.280;2023-01-27T04:46:59;102580.59;;;1.19;100.00
62418;BME280;48456;54.242;10.280;2023-01-27T04:49:26;102580.22;;;1.12;100.00
62418;BME280;48456;54.242;10.280;2023-01-27T04:51:52;102575.72;;;1.10;100.00
62418;BME280;48456;54.242;10.280;2023-01-27T04:54:19;102564.88;;;1.03;100.00
62418;BME280;48456;54.242;10.280;2023-01-27T04:56:56;102564.25;;;1.08;100.00
62418;BME280;48456;54.242;10.280;2023-01-27T04:59:23;102579.69;;;1.18;100.00
62418;BME280;48456;54.242;10.280;2023-01-27T05:01:49;102583.69;;;1.26;100.00
62418;BME280;48456;54.242;10.280;2023-01-27T05:04:17;102581.56;;;1.34;100.00
62418;BME280;48456;54.242;10.280;2023-01-27T05:06:43;102580.03;;;1.38;100.00
62418;BME280;48456;54.242;10.280;2023-01-27T05:09:09;102586.47;;;1.43;100.00
62418;BME280;48456;54.242;10.280;2023-01-27T05:11:36;102578.03;;;1.47;100.00
62418;BME280;48456;54.242;10.280;2023-01-27T05:14:02;102577.31;;;1.50;100.00
62418;BME280;48456;54.242;10.280;2023-01-27T05:16:28;102585.31;;;1.53;100.00
62418;BME280;48456;54.242;10.280;2023-01-27T05:18:55;102587.19;;;1.55;100.00
62418;BME280;48456;54.242;10.280;2023-01-27T05:21:22;102578.59;;;1.57;100.00
62418;BME280;48456;54.242;10.280;2023-01-27T05:23:49;102581.28;;;1.58;100.00
62418;BME280;48456;54.242;10.280;2023-01-27T05:26:17;102586.69;;;1.61;100.00
62418;BME280;48456;54.242;10.280;2023-01-27T05:28:44;102581.56;;;1.63;100.00
62418;BME280;48456;54.242;10.280;2023-01-27T05:31:11;102588.50;;;1.62;100.00
62418;BME280;48456;54.242;10.280;2023-01-27T05:33:38;102588.56;;;1.64;100.00
62418;BME280;48456;54.242;10.280;2023-01-27T05:36:05;102588.56;;;1.64;100.00
62418;BME280;48456;54.242;10.280;2023-01-27T05:38:32;102599.00;;;1.64;100.00
62418;BME280;48456;54.242;10.280;2023-01-27T05:40:59;102597.31;;;1.64;100.00
62418;BME280;48456;54.242;10.280;2023-01-27T05:43:27;102601.53;;;1.62;100.00
62418;BME280;48456;54.242;10.280;2023-01-27T05:45:59;102599.09;;;1.65;100.00
62418;BME280;48456;54.242;10.280;2023-01-27T05:48:26;102603.53;;;1.66;100.00
62418;BME280;48456;54.242;10.280;2023-01-27T05:50:53;102617.38;;;1.65;100.00
62418;BME280;48456;54.242;10.280;2023-01-27T05:53:19;102628.72;;;1.66;100.00
62418;BME280;48456;54.242;10.280;2023-01-27T05:55:46;102624.22;;;1.63;100.00
62418;BME280;48456;54.242;10.280;2023-01-27T05:58:12;102619.88;;;1.64;100.00
62418;BME280;48456;54.242;10.280;2023-01-27T06:00:38;102619.81;;;1.62;100.00
62418;BME280;48456;54.242;10.280;2023-01-27T06:03:05;102633.72;;;1.63;100.00
62418;BME280;48456;54.242;10.280;2023-01-27T06:05:31;102630.41;;;1.65;100.00
62418;BME280;48456;54.242;10.280;2023-01-27T06:07:57;102624.94;;;1.61;100.00
62418;BME280;48456;54.242;10.280;2023-01-27T06:10:23;102633.53;;;1.60;100.00
62418;BME280;48456;54.242;10.280;2023-01-27T06:12:50;102643.09;;;1.59;100.00
62418;BME280;48456;54.242;10.280;2023-01-27T06:15:16;102631.63;;;1.57;100.00
62418;BME280;48456;54.242;10.280;2023-01-27T06:17:42;102645.50;;;1.56;100.00
62418;BME280;48456;54.242;10.280;2023-01-27T06:20:09;102642.88;;;1.56;100.00
62418;BME280;48456;54.242;10.280;2023-01-27T06:22:35;102639.19;;;1.52;100.00
62418;BME280;48456;54.242;10.280;2023-01-27T06:25:02;102646.22;;;1.53;100.00
62418;BME280;48456;54.242;10.280;2023-01-27T06:27:28;102649.72;;;1.54;100.00
62418;BME280;48456;54.242;10.280;2023-01-27T06:29:54;102653.13;;;1.53;100.00
62418;BME280;48456;54.242;10.280;2023-01-27T06:32:20;102653.06;;;1.51;100.00
62418;BME280;48456;54.242;10.280;2023-01-27T06:34:47;102657.34;;;1.51;100.00
62418;BME280;48456;54.242;10.280;2023-01-27T06:37:13;102663.28;;;1.48;100.00
62418;BME280;48456;54.242;10.280;2023-01-27T06:39:39;102671.09;;;1.48;100.00
62418;BME280;48456;54.242;10.280;2023-01-27T06:42:06;102664.97;;;1.48;100.00
62418;BME280;48456;54.242;10.280;2023-01-27T06:44:34;102662.25;;;1.46;100.00
62418;BME280;48456;54.242;10.280;2023-01-27T06:47:00;102675.41;;;1.48;100.00
62418;BME280;48456;54.242;10.280;2023-01-27T06:49:27;102678.00;;;1.48;100.00
62418;BME280;48456;54.242;10.280;2023-01-27T06:51:53;102682.34;;;1.47;100.00
62418;BME280;48456;54.242;10.280;2023-01-27T06:54:19;102684.66;;;1.42;100.00
62418;BME280;48456;54.242;10.280;2023-01-27T06:56:46;102691.56;;;1.42;100.00
62418;BME280;48456;54.242;10.280;2023-01-27T06:59:12;102687.16;;;1.41;100.00
62418;BME280;48456;54.242;10.280;2023-01-27T07:01:38;102692.28;;;1.39;100.00
62418;BME280;48456;54.242;10.280;2023-01-27T07:04:05;102691.38;;;1.39;100.00
62418;BME280;48456;54.242;10.280;2023-01-27T07:06:31;102690.38;;;1.37;100.00
62418;BME280;48456;54.242;10.280;2023-01-27T07:08:58;102678.25;;;1.37;100.00
62418;BME280;48456;54.242;10.280;2023-01-27T07:11:24;102681.72;;;1.38;100.00
62418;BME280;48456;54.242;10.280;2023-01-27T07:13:50;102691.28;;;1.37;100.00
62418;BME280;48456;54.242;10.280;2023-01-27T07:16:16;102690.56;;;1.40;100.00
62418;BME280;48456;54.242;10.280;2023-01-27T07:18:43;102691.47;;;1.40;100.00
62418;BME280;48456;54.242;10.280;2023-01-27T07:21:09;102697.38;;;1.38;100.00
62418;BME280;48456;54.242;10.280;2023-01-27T07:23:36;102705.22;;;1.38;100.00
62418;BME280;48456;54.242;10.280;2023-01-27T07:26:02;102703.41;;;1.37;100.00
62418;BME280;48456;54.242;10.280;2023-01-27T07:28:40;102713.13;;;1.39;100.00
62418;BME280;48456;54.242;10.280;2023-01-27T07:31:07;102713.03;;;1.38;100.00
62418;BME280;48456;54.242;10.280;2023-01-27T07:33:33;102718.44;;;1.41;100.00
62418;BME280;48456;54.242;10.280;2023-01-27T07:35:59;102724.38;;;1.38;100.00
62418;BME280;48456;54.242;10.280;2023-01-27T07:38:26;102722.59;;;1.37;100.00
62418;BME280;48456;54.242;10.280;2023-01-27T07:40:52;102716.34;;;1.35;100.00
62418;BME280;48456;54.242;10.280;2023-01-27T07:43:18;102712.66;;;1.32;100.00
62418;BME280;48456;54.242;10.280;2023-01-27T07:45:45;102714.34;;;1.31;100.00
62418;BME280;48456;54.242;10.280;2023-01-27T07:48:14;102716.06;;;1.31;100.00
62418;BME280;48456;54.242;10.280;2023-01-27T07:50:41;102726.41;;;1.29;100.00
62418;BME280;48456;54.242;10.280;2023-01-27T07:53:08;102727.88;;;1.25;100.00
62418;BME280;48456;54.242;10.280;2023-01-27T07:55:35;102738.03;;;1.21;100.00
62418;BME280;48456;54.242;10.280;2023-01-27T07:58:01;102736.41;;;1.23;100.00
62418;BME280;48456;54.242;10.280;2023-01-27T08:00:27;102728.59;;;1.23;100.00
62418;BME280;48456;54.242;10.280;2023-01-27T08:02:54;102738.13;;;1.22;100.00
62418;BME280;48456;54.242;10.280;2023-01-27T08:05:21;102746.22;;;1.27;100.00
62418;BME280;48456;54.242;10.280;2023-01-27T08:07:48;102745.34;;;1.26;100.00
62418;BME280;48456;54.242;10.280;2023-01-27T08:10:15;102747.16;;;1.27;100.00
62418;BME280;48456;54.242;10.280;2023-01-27T08:12:43;102743.03;;;1.31;100.00
62418;BME280;48456;54.242;10.280;2023-01-27T08:15:10;102750.06;;;1.32;100.00
62418;BME280;48456;54.242;10.280;2023-01-27T08:17:36;102751.06;;;1.34;100.00
62418;BME280;48456;54.242;10.280;2023-01-27T08:20:03;102758.06;;;1.35;100.00
62418;BME280;48456;54.242;10.280;2023-01-27T08:22:29;102759.97;;;1.38;100.00
62418;BME280;48456;54.242;10.280;2023-01-27T08:24:56;102756.88;;;1.43;100.00
62418;BME280;48456;54.242;10.280;2023-01-27T08:27:22;102771.72;;;1.45;100.00
62418;BME280;48456;54.242;10.280;2023-01-27T08:29:48;102778.66;;;1.44;100.00
62418;BME280;48456;54.242;10.280;2023-01-27T08:32:15;102772.81;;;1.48;100.00
62418;BME280;48456;54.242;10.280;2023-01-27T08:34:41;102773.81;;;1.50;100.00
62418;BME280;48456;54.242;10.280;2023-01-27T08:37:07;102778.16;;;1.50;100.00
62418;BME280;48456;54.242;10.280;2023-01-27T08:39:34;102776.53;;;1.52;100.00
62418;BME280;48456;54.242;10.280;2023-01-27T08:42:00;102771.22;;;1.50;100.00
62418;BME280;48456;54.242;10.280;2023-01-27T08:44:26;102773.72;;;1.49;100.00
62418;BME280;48456;54.242;10.280;2023-01-27T08:46:54;102770.31;;;1.50;100.00
62418;BME280;48456;54.242;10.280;2023-01-27T08:49:20;102777.34;;;1.51;100.00
62418;BME280;48456;54.242;10.280;2023-01-27T08:51:46;102777.53;;;1.54;100.00
62418;BME280;48456;54.242;10.280;2023-01-27T08:54:12;102773.81;;;1.50;100.00
62418;BME280;48456;54.242;10.280;2023-01-27T08:56:39;102775.72;;;1.53;100.00
62418;BME280;48456;54.242;10.280;2023-01-27T08:59:05;102777.44;;;1.52;100.00
62418;BME280;48456;54.242;10.280;2023-01-27T09:01:32;102781.03;;;1.54;100.00
62418;BME280;48456;54.242;10.280;2023-01-27T09:03:58;102769.19;;;1.46;100.00
62418;BME280;48456;54.242;10.280;2023-01-27T09:06:24;102775.22;;;1.45;100.00
62418;BME280;48456;54.242;10.280;2023-01-27T09:08:50;102779.75;;;1.48;100.00
62418;BME280;48456;54.242;10.280;2023-01-27T09:11:41;102775.81;;;1.54;100.00
62418;BME280;48456;54.242;10.280;2023-01-27T09:14:08;102783.97;;;1.59;100.00
62418;BME280;48456;54.242;10.280;2023-01-27T09:16:34;102780.31;;;1.57;100.00
62418;BME280;48456;54.242;10.280;2023-01-27T09:19:01;102770.81;;;1.58;100.00
62418;BME280;48456;54.242;10.280;2023-01-27T09:21:27;102768.31;;;1.59;100.00
62418;BME280;48456;54.242;10.280;2023-01-27T09:23:53;102777.53;;;1.67;100.00
62418;BME280;48456;54.242;10.280;2023-01-27T09:26:20;102782.75;;;1.67;100.00
62418;BME280;48456;54.242;10.280;2023-01-27T09:28:46;102775.81;;;1.68;100.00
62418;BME280;48456;54.242;10.280;2023-01-27T09:31:12;102781.31;;;1.73;100.00
62418;BME280;48456;54.242;10.280;2023-01-27T09:33:39;102794.59;;;1.76;100.00
62418;BME280;48456;54.242;10.280;2023-01-27T09:38:32;102782.34;;;1.75;100.00
62418;BME280;48456;54.242;10.280;2023-01-27T09:46:35;102787.75;;;1.64;100.00
62418;BME280;48456;54.242;10.280;2023-01-27T09:56:51;102779.22;;;1.67;100.00
62418;BME280;48456;54.242;10.280;2023-01-27T10:12:36;102802.00;;;1.69;100.00
62418;BME280;48456;54.242;10.280;2023-01-27T10:15:08;102803.97;;;1.87;100.00
62418;BME280;48456;54.242;10.280;2023-01-27T10:20:35;102797.97;;;1.88;100.00
62418;BME280;48456;54.242;10.280;2023-01-27T10:25:40;102793.16;;;1.81;100.00
62418;BME280;48456;54.242;10.280;2023-01-27T10:28:12;102799.69;;;1.88;100.00
62418;BME280;48456;54.242;10.280;2023-01-27T10:30:40;102800.97;;;1.94;100.00
62418;BME280;48456;54.242;10.280;2023-01-27T10:46:13;102808.84;;;1.67;100.00
62418;BME280;48456;54.242;10.280;2023-01-27T10:48:54;102799.63;;;1.59;100.00
62418;BME280;48456;54.242;10.280;2023-01-27T10:51:24;102801.03;;;1.54;100.00
62418;BME280;48456;54.242;10.280;2023-01-27T10:53:54;102806.31;;;1.55;100.00
62418;BME280;48456;54.242;10.280;2023-01-27T10:56:28;102804.94;;;1.61;100.00
62418;BME280;48456;54.242;10.280;2023-01-27T10:58:59;102805.81;;;1.61;100.00
62418;BME280;48456;54.242;10.280;2023-01-27T11:01:32;102798.00;;;1.61;100.00
62418;BME280;48456;54.242;10.280;2023-01-27T11:04:01;102798.41;;;1.67;100.00
62418;BME280;48456;54.242;10.280;2023-01-27T11:06:35;102796.78;;;1.69;100.00
62418;BME280;48456;54.242;10.280;2023-01-27T11:09:05;102796.16;;;1.74;100.00
62418;BME280;48456;54.242;10.280;2023-01-27T11:11:33;102794.97;;;1.82;100.00
62418;BME280;48456;54.242;10.280;2023-01-27T11:16:36;102794.41;;;2.01;100.00
62418;BME280;48456;54.242;10.280;2023-01-27T11:19:15;102791.78;;;2.15;100.00
62418;BME280;48456;54.242;10.280;2023-01-27T11:21:43;102792.53;;;2.27;100.00
62418;BME280;48456;54.242;10.280;2023-01-27T11:24:20;102792.19;;;2.21;100.00
62418;BME280;48456;54.242;10.280;2023-01-27T11:26:50;102791.88;;;2.16;100.00
62418;BME280;48456;54.242;10.280;2023-01-27T11:32:10;102787.88;;;2.08;100.00
62418;BME280;48456;54.242;10.280;2023-01-27T11:37:21;102786.19;;;2.08;100.00
62418;BME280;48456;54.242;10.280;2023-01-27T11:39:47;102791.16;;;2.19;100.00
62418;BME280;48456;54.242;10.280;2023-01-27T11:42:14;102779.22;;;2.23;100.00
62418;BME280;48456;54.242;10.280;2023-01-27T11:44:41;102779.16;;;2.36;100.00
62418;BME280;48456;54.242;10.280;2023-01-27T11:47:10;102781.19;;;2.55;100.00
62418;BME280;48456;54.242;10.280;2023-01-27T11:49:43;102775.41;;;2.46;100.00
62418;BME280;48456;54.242;10.280;2023-01-27T11:52:12;102764.34;;;2.50;100.00
62418;BME280;48456;54.242;10.280;2023-01-27T11:54:47;102767.69;;;2.63;100.00
62418;BME280;48456;54.242;10.280;2023-01-27T11:57:19;102766.50;;;2.57;100.00
62418;BME280;48456;54.242;10.280;2023-01-27T11:59:47;102754.63;;;2.47;100.00
62418;BME280;48456;54.242;10.280;2023-01-27T12:10:02;102762.53;;;2.20;100.00
62418;BME280;48456;54.242;10.280;2023-01-27T12:12:28;102767.28;;;2.13;100.00
62418;BME280;48456;54.242;10.280;2023-01-27T12:14:58;102768.28;;;2.15;100.00
62418;BME280;48456;54.242;10.280;2023-01-27T12:19:51;102761.09;;;2.26;100.00
62418;BME280;48456;54.242;10.280;2023-01-27T12:22:26;102760.59;;;2.31;100.00
62418;BME280;48456;54.242;10.280;2023-01-27T12:24:58;102757.00;;;2.29;100.00
62418;BME280;48456;54.242;10.280;2023-01-27T12:27:26;102749.69;;;2.24;100.00
62418;BME280;48456;54.242;10.280;2023-01-27T12:30:03;102751.38;;;2.23;100.00
62418;BME280;48456;54.242;10.280;2023-01-27T12:32:38;102747.06;;;2.24;100.00
62418;BME280;48456;54.242;10.280;2023-01-27T12:35:06;102745.16;;;2.21;100.00
62418;BME280;48456;54.242;10.280;2023-01-27T12:37:43;102755.84;;;2.11;100.00
62418;BME280;48456;54.242;10.280;2023-01-27T12:40:15;102749.06;;;1.99;100.00
62418;BME280;48456;54.242;10.280;2023-01-27T12:42:47;102738.84;;;1.89;100.00
62418;BME280;48456;54.242;10.280;2023-01-27T12:50:33;102741.81;;;1.66;100.00
62418;BME280;48456;54.242;10.280;2023-01-27T12:53:13;102729.28;;;1.61;100.00
62418;BME280;48456;54.242;10.280;2023-01-27T13:00:47;102732.19;;;1.38;100.00
62418;BME280;48456;54.242;10.280;2023-01-27T13:03:14;102722.44;;;1.63;100.00
62418;BME280;48456;54.242;10.280;2023-01-27T13:05:40;102713.06;;;2.67;100.00
62418;BME280;48456;54.242;10.280;2023-01-27T13:08:15;102704.44;;;3.45;100.00
62418;BME280;48456;54.242;10.280;2023-01-27T13:10:50;102700.41;;;4.00;100.00
62418;BME280;48456;54.242;10.280;2023-01-27T13:13:18;102687.59;;;4.57;100.00
62418;BME280;48456;54.242;10.280;2023-01-27T13:15:55;102689.00;;;4.50;100.00
62418;BME280;48456;54.242;10.280;2023-01-27T13:18:23;102688.00;;;4.83;100.00
62418;BME280;48456;54.242;10.280;2023-01-27T13:20:52;102692.41;;;4.84;100.00
62418;BME280;48456;54.242;10.280;2023-01-27T13:23:28;102692.34;;;5.00;100.00
62418;BME280;48456;54.242;10.280;2023-01-27T13:37:05;102693.34;;;4.84;100.00
62418;BME280;48456;54.242;10.280;2023-01-27T13:44:39;102705.97;;;3.90;100.00
62418;BME280;48456;54.242;10.280;2023-01-27T13:47:11;102707.72;;;3.58;100.00
62418;BME280;48456;54.242;10.280;2023-01-27T13:49:56;102706.91;;;3.27;100.00
62418;BME280;48456;54.242;10.280;2023-01-27T13:52:25;102711.00;;;3.22;100.00
62418;BME280;48456;54.242;10.280;2023-01-27T13:54:52;102706.72;;;3.24;100.00
62418;BME280;48456;54.242;10.280;2023-01-27T13:57:36;102719.06;;;3.27;100.00
62418;BME280;48456;54.242;10.280;2023-01-27T14:02:38;102709.03;;;3.03;100.00
62418;BME280;48456;54.242;10.280;2023-01-27T14:05:17;102715.97;;;2.57;100.00
62418;BME280;48456;54.242;10.280;2023-01-27T14:10:34;102729.69;;;2.24;100.00
62418;BME280;48456;54.242;10.280;2023-01-27T14:13:06;102720.00;;;2.08;100.00
62418;BME280;48456;54.242;10.280;2023-01-27T14:15:39;102723.28;;;1.90;100.00
62418;BME280;48456;54.242;10.280;2023-01-27T14:18:16;102723.44;;;1.65;100.00
62418;BME280;48456;54.242;10.280;2023-01-27T14:20:59;102718.56;;;1.42;100.00
62418;BME280;48456;54.242;10.280;2023-01-27T14:31:22;102744.00;;;0.93;100.00
62418;BME280;48456;54.242;10.280;2023-01-27T14:33:53;102737.56;;;0.74;100.00
62418;BME280;48456;54.242;10.280;2023-01-27T14:36:31;102738.53;;;0.62;100.00
62418;BME280;48456;54.242;10.280;2023-01-27T14:39:23;102723.56;;;0.46;100.00
62418;BME280;48456;54.242;10.280;2023-01-27T14:42:11;102721.34;;;0.39;100.00
62418;BME280;48456;54.242;10.280;2023-01-27T14:44:48;102736.44;;;0.31;100.00
62418;BME280;48456;54.242;10.280;2023-01-27T14:50:17;102743.22;;;0.29;100.00
62418;BME280;48456;54.242;10.280;2023-01-27T14:55:30;102759.19;;;0.34;100.00
62418;BME280;48456;54.242;10.280;2023-01-27T15:21:00;102779.56;;;0.28;100.00
62418;BME280;48456;54.242;10.280;2023-01-27T15:26:07;102784.41;;;0.35;100.00
62418;BME280;48456;54.242;10.280;2023-01-27T15:28:35;102780.81;;;0.33;100.00
62418;BME280;48456;54.242;10.280;2023-01-27T15:38:57;102784.22;;;0.20;100.00
62418;BME280;48456;54.242;10.280;2023-01-27T15:41:23;102783.44;;;0.21;100.00
62418;BME280;48456;54.242;10.280;2023-01-27T15:46:49;102788.50;;;0.31;100.00
62418;BME280;48456;54.242;10.280;2023-01-27T15:51:46;102779.91;;;0.32;100.00
62418;BME280;48456;54.242;10.280;2023-01-27T15:54:15;102783.41;;;0.33;100.00
62418;BME280;48456;54.242;10.280;2023-01-27T15:56:43;102792.78;;;0.31;100.00
62418;BME280;48456;54.242;10.280;2023-01-27T15:59:20;102780.47;;;0.28;100.00
62418;BME280;48456;54.242;10.280;2023-01-27T16:01:47;102782.66;;;0.22;100.00
62418;BME280;48456;54.242;10.280;2023-01-27T16:04:15;102793.66;;;0.18;100.00
62418;BME280;48456;54.242;10.280;2023-01-27T16:06:44;102792.03;;;0.20;100.00
62418;BME280;48456;54.242;10.280;2023-01-27T16:09:12;102795.44;;;0.19;100.00
62418;BME280;48456;54.242;10.280;2023-01-27T16:11:41;102801.47;;;0.18;100.00
62418;BME280;48456;54.242;10.280;2023-01-27T16:16:38;102801.88;;;0.24;100.00
62418;BME280;48456;54.242;10.280;2023-01-27T16:26:47;102807.88;;;0.23;100.00
62418;BME280;48456;54.242;10.280;2023-01-27T16:31:44;102800.78;;;0.20;100.00
62418;BME280;48456;54.242;10.280;2023-01-27T16:34:18;102800.66;;;0.19;100.00
62418;BME280;48456;54.242;10.280;2023-01-27T16:37:02;102813.91;;;0.22;100.00
62418;BME280;48456;54.242;10.280;2023-01-27T16:39:31;102809.28;;;0.18;100.00
62418;BME280;48456;54.242;10.280;2023-01-27T16:42:00;102808.69;;;0.22;100.00
62418;BME280;48456;54.242;10.280;2023-01-27T16:44:31;102813.09;;;0.23;100.00
62418;BME280;48456;54.242;10.280;2023-01-27T16:47:00;102822.28;;;0.18;100.00
62418;BME280;48456;54.242;10.280;2023-01-27T16:49:42;102817.84;;;0.17;100.00
62418;BME280;48456;54.242;10.280;2023-01-27T16:52:15;102819.56;;;0.16;100.00
62418;BME280;48456;54.242;10.280;2023-01-27T16:54:42;102823.06;;;0.17;100.00
62418;BME280;48456;54.242;10.280;2023-01-27T16:59:54;102825.78;;;0.18;100.00